createdAt,value
2023-01-13T00:02:24.192Z,13.00
2023-01-13T00:04:51.767Z,13.00
2023-01-13T00:07:19.053Z,13.00
2023-01-13T00:09:46.523Z,13.00
2023-01-13T00:12:13.744Z,13.00
2023-01-13T00:14:40.875Z,13.00
2023-01-13T00:17:08.184Z,13.00
2023-01-13T00:19:36.540Z,13.00
2023-01-13T00:22:03.988Z,13.00
2023-01-13T00:24:31.257Z,13.00
2023-01-13T00:27:01.038Z,12.90
2023-01-13T00:29:28.219Z,13.00
2023-01-13T00:31:55.784Z,12.90
2023-01-13T00:34:23.092Z,12.90
2023-01-13T00:36:50.477Z,12.90
2023-01-13T00:39:17.643Z,12.90
2023-01-13T00:42:06.027Z,12.90
2023-01-13T00:44:33.258Z,12.80
2023-01-13T00:47:01.064Z,12.80
2023-01-13T00:49:28.319Z,12.80
2023-01-13T00:51:55.580Z,12.80
2023-01-13T00:54:22.847Z,12.80
2023-01-13T00:56:50.105Z,12.70
2023-01-13T00:59:19.560Z,12.70
2023-01-13T01:01:46.971Z,12.70
2023-01-13T01:04:14.434Z,12.60
2023-01-13T01:06:41.679Z,12.60
2023-01-13T01:09:13.127Z,12.60
2023-01-13T01:11:41.003Z,12.50
2023-01-13T01:14:12.102Z,12.50
2023-01-13T01:16:41.490Z,12.50
2023-01-13T01:19:12.779Z,12.40
2023-01-13T01:21:40.622Z,12.40
2023-01-13T01:24:08.083Z,12.30
2023-01-13T01:26:35.209Z,12.30
2023-01-13T01:29:02.968Z,12.30
2023-01-13T01:31:33.402Z,12.20
2023-01-13T01:34:01.997Z,12.20
2023-01-13T01:36:34.987Z,12.20
2023-01-13T01:39:03.229Z,12.10
2023-01-13T01:41:33.591Z,12.10
2023-01-13T01:44:41.900Z,12.10
2023-01-13T01:47:18.267Z,12.00
2023-01-13T01:49:47.530Z,12.00
2023-01-13T01:52:31.107Z,12.00
2023-01-13T01:55:15.414Z,12.00
2023-01-13T01:58:05.879Z,12.00
2023-01-13T02:00:33.372Z,12.00
2023-01-13T02:03:01.843Z,11.90
2023-01-13T02:05:29.039Z,11.90
2023-01-13T02:07:59.831Z,11.90
2023-01-13T02:10:30.396Z,11.90
2023-01-13T02:13:02.571Z,11.90
2023-01-13T02:15:55.638Z,11.90
2023-01-13T02:18:40.653Z,11.90
2023-01-13T02:22:27.538Z,11.80
2023-01-13T02:25:44.650Z,11.80
2023-01-13T02:29:32.728Z,11.80
2023-01-13T02:36:42.103Z,11.70
2023-01-13T02:39:31.070Z,11.70
2023-01-13T02:42:53.773Z,11.60
2023-01-13T02:45:56.439Z,11.60
2023-01-13T02:48:26.860Z,11.50
2023-01-13T02:51:12.367Z,11.50
2023-01-13T02:54:03.931Z,11.50
2023-01-13T02:56:37.342Z,11.40
2023-01-13T02:59:06.752Z,11.40
2023-01-13T03:01:34.051Z,11.40
2023-01-13T03:04:13.483Z,11.30
2023-01-13T03:06:51.904Z,11.30
2023-01-13T03:09:30.053Z,11.30
2023-01-13T03:12:28.053Z,11.30
2023-01-13T03:15:03.823Z,11.30
2023-01-13T03:17:34.445Z,11.30
2023-01-13T03:20:29.238Z,11.30
2023-01-13T03:23:52.211Z,11.30
2023-01-13T03:26:42.797Z,11.30
2023-01-13T03:29:20.689Z,11.30
2023-01-13T03:33:02.060Z,11.30
2023-01-13T03:35:42.199Z,11.30
2023-01-13T03:38:18.611Z,11.30
2023-01-13T03:40:56.381Z,11.30
2023-01-13T03:43:58.160Z,11.30
2023-01-13T03:46:38.863Z,11.30
2023-01-13T03:49:08.487Z,11.30
2023-01-13T03:51:39.420Z,11.40
2023-01-13T03:54:11.763Z,11.40
2023-01-13T03:56:45.150Z,11.40
2023-01-13T03:59:25.205Z,11.40
2023-01-13T04:02:21.828Z,11.40
2023-01-13T04:05:03.623Z,11.40
2023-01-13T04:07:55.293Z,11.40
2023-01-13T04:10:40.128Z,11.50
2023-01-13T04:13:16.758Z,11.50
2023-01-13T04:15:46.736Z,11.50
2023-01-13T04:18:15.782Z,11.50
2023-01-13T04:20:46.287Z,11.50
2023-01-13T04:23:14.075Z,11.40
2023-01-13T04:25:43.395Z,11.50
2023-01-13T04:28:11.575Z,11.50
2023-01-13T04:30:39.426Z,11.40
2023-01-13T04:33:10.381Z,11.40
2023-01-13T04:35:38.594Z,11.40
2023-01-13T04:38:11.331Z,11.50
2023-01-13T04:40:39.984Z,11.50
2023-01-13T04:43:07.699Z,11.50
2023-01-13T04:45:35.576Z,11.40
2023-01-13T04:48:02.888Z,11.40
2023-01-13T04:50:30.170Z,11.40
2023-01-13T04:52:57.467Z,11.40
2023-01-13T04:55:27.731Z,11.40
2023-01-13T04:57:55.015Z,11.40
2023-01-13T05:00:23.969Z,11.40
2023-01-13T05:02:52.066Z,11.40
2023-01-13T05:05:19.655Z,11.40
2023-01-13T05:07:47.070Z,11.40
2023-01-13T05:10:14.649Z,11.40
2023-01-13T05:13:00.392Z,11.40
2023-01-13T05:15:46.284Z,11.40
2023-01-13T05:18:14.097Z,11.40
2023-01-13T05:20:41.382Z,11.40
2023-01-13T05:23:27.205Z,11.40
2023-01-13T05:25:54.408Z,11.40
2023-01-13T05:28:21.649Z,11.40
2023-01-13T05:30:49.713Z,11.30
2023-01-13T05:33:20.837Z,11.30
2023-01-13T05:35:49.674Z,11.30
2023-01-13T05:38:18.689Z,11.30
2023-01-13T05:41:05.091Z,11.20
2023-01-13T05:43:33.157Z,11.20
2023-01-13T05:46:08.422Z,11.20
2023-01-13T05:48:42.744Z,11.10
2023-01-13T05:51:12.924Z,11.10
2023-01-13T05:53:43.040Z,11.10
2023-01-13T05:56:11.471Z,11.10
2023-01-13T05:58:38.866Z,11.10
2023-01-13T06:01:09.234Z,11.10
2023-01-13T06:03:37.405Z,11.10
2023-01-13T06:06:05.458Z,11.10
2023-01-13T06:08:33.171Z,11.10
2023-01-13T06:11:00.477Z,11.10
2023-01-13T06:13:27.781Z,11.10
2023-01-13T06:15:59.912Z,11.10
2023-01-13T06:18:28.681Z,11.10
2023-01-13T06:20:57.136Z,11.10
2023-01-13T06:23:24.966Z,11.10
2023-01-13T06:26:30.197Z,11.00
2023-01-13T06:28:57.692Z,11.00
2023-01-13T06:31:26.522Z,11.00
2023-01-13T06:34:00.335Z,11.00
2023-01-13T06:36:35.897Z,11.00
2023-01-13T06:39:04.994Z,11.00
2023-01-13T06:41:52.658Z,10.90
2023-01-13T06:44:22.272Z,10.90
2023-01-13T06:46:49.848Z,10.90
2023-01-13T06:49:17.192Z,10.90
2023-01-13T06:51:44.443Z,10.80
2023-01-13T06:54:11.804Z,10.80
2023-01-13T06:56:38.955Z,10.80
2023-01-13T06:59:25.464Z,10.80
2023-01-13T07:01:52.861Z,10.80
2023-01-13T07:04:21.235Z,10.80
2023-01-13T07:06:48.589Z,10.80
2023-01-13T07:09:18.527Z,10.80
2023-01-13T07:11:45.905Z,10.90
2023-01-13T07:22:46.863Z,11.00
2023-01-13T07:25:15.506Z,11.00
2023-01-13T07:27:42.807Z,11.10
2023-01-13T07:30:11.162Z,11.10
2023-01-13T07:32:38.494Z,11.10
2023-01-13T07:35:06.641Z,11.10
2023-01-13T07:37:36.744Z,11.20
2023-01-13T07:40:05.965Z,11.20
2023-01-13T07:42:51.626Z,11.20
2023-01-13T07:45:19.078Z,11.20
2023-01-13T07:47:46.588Z,11.20
2023-01-13T07:50:13.843Z,11.20
2023-01-13T07:52:41.269Z,11.20
2023-01-13T07:55:09.336Z,11.20
2023-01-13T07:57:36.611Z,11.20
2023-01-13T08:00:06.208Z,11.20
2023-01-13T08:02:34.297Z,11.20
2023-01-13T08:05:01.606Z,11.20
2023-01-13T08:07:29.004Z,11.30
2023-01-13T08:09:56.277Z,11.30
2023-01-13T08:12:51.998Z,11.30
2023-01-13T08:15:23.441Z,11.30
2023-01-13T08:17:51.113Z,11.30
2023-01-13T08:20:21.083Z,11.30
2023-01-13T08:22:48.289Z,11.30
2023-01-13T08:25:18.410Z,11.30
2023-01-13T08:27:45.691Z,11.30
2023-01-13T08:30:13.208Z,11.30
2023-01-13T08:32:40.381Z,11.30
2023-01-13T08:35:08.454Z,11.30
2023-01-13T08:37:35.948Z,11.30
2023-01-13T08:40:03.307Z,11.30
2023-01-13T08:42:31.194Z,11.20
2023-01-13T08:44:59.105Z,11.20
2023-01-13T08:47:29.586Z,11.20
2023-01-13T08:49:56.998Z,11.20
2023-01-13T08:52:24.874Z,11.20
2023-01-13T08:54:52.514Z,11.20
2023-01-13T08:57:20.038Z,11.20
2023-01-13T08:59:47.657Z,11.20
2023-01-13T09:02:19.157Z,11.20
2023-01-13T09:04:47.531Z,11.20
2023-01-13T09:07:15.661Z,11.30
2023-01-13T09:09:43.815Z,11.20
2023-01-13T09:12:34.722Z,11.30
2023-01-13T09:15:03.141Z,11.30
2023-01-13T09:21:40.376Z,11.40
2023-01-13T09:24:08.550Z,11.40
2023-01-13T09:26:37.461Z,11.40
2023-01-13T09:29:05.704Z,11.50
2023-01-13T09:31:35.923Z,11.50
2023-01-13T09:34:23.798Z,11.50
2023-01-13T09:36:51.678Z,11.50
2023-01-13T09:43:54.336Z,11.60
2023-01-13T09:46:57.300Z,11.70
2023-01-13T09:49:41.559Z,11.70
2023-01-13T09:52:21.145Z,11.80
2023-01-13T09:55:19.895Z,11.80
2023-01-13T09:58:25.236Z,11.90
2023-01-13T10:01:03.850Z,11.90
2023-01-13T10:03:33.730Z,12.00
2023-01-13T10:06:39.073Z,12.00
2023-01-13T10:09:09.439Z,12.10
2023-01-13T10:12:03.275Z,12.20
2023-01-13T10:14:53.667Z,12.30
2023-01-13T10:18:07.660Z,12.30
2023-01-13T10:21:23.541Z,12.40
2023-01-13T10:24:04.235Z,12.50
2023-01-13T10:27:03.140Z,12.60
2023-01-13T10:29:32.596Z,12.60
2023-01-13T10:32:01.267Z,12.70
2023-01-13T10:34:31.694Z,12.70
2023-01-13T10:37:05.740Z,12.70
2023-01-13T10:39:43.145Z,12.80
2023-01-13T10:42:22.199Z,12.80
2023-01-13T10:57:25.590Z,12.70
2023-01-13T10:59:54.044Z,12.70
2023-01-13T11:02:31.206Z,12.60
2023-01-13T11:05:03.524Z,12.60
2023-01-13T11:07:46.203Z,12.60
2023-01-13T11:10:24.610Z,12.60
2023-01-13T11:13:11.793Z,12.60
2023-01-13T11:15:56.446Z,12.60
2023-01-13T11:19:12.344Z,12.70
2023-01-13T11:22:04.546Z,12.60
2023-01-13T11:24:42.819Z,12.50
2023-01-13T11:27:30.866Z,12.50
2023-01-13T11:30:19.428Z,12.40
2023-01-13T11:33:20.970Z,12.40
2023-01-13T11:36:09.357Z,12.30
2023-01-13T11:38:53.864Z,12.20
2023-01-13T11:41:35.998Z,12.10
2023-01-13T11:44:32.823Z,12.10
2023-01-13T11:47:00.432Z,12.00
2023-01-13T11:49:32.754Z,11.90
2023-01-13T11:52:42.796Z,11.80
2023-01-13T11:55:49.172Z,11.70
2023-01-13T11:59:00.728Z,11.70
2023-01-13T12:01:55.326Z,11.60
2023-01-13T12:05:13.981Z,11.50
2023-01-13T12:08:16.697Z,11.40
2023-01-13T12:11:25.526Z,11.30
2023-01-13T12:14:31.122Z,11.30
2023-01-13T12:17:01.496Z,11.20
2023-01-13T12:19:32.817Z,11.20
2023-01-13T12:22:13.970Z,11.20
2023-01-13T12:25:16.331Z,11.20
2023-01-13T12:28:03.759Z,11.20
2023-01-13T12:30:51.126Z,11.30
2023-01-13T12:33:56.549Z,11.30
2023-01-13T12:37:04.088Z,11.40
2023-01-13T12:40:14.436Z,11.40
2023-01-13T12:43:06.446Z,11.50
2023-01-13T12:45:34.613Z,11.50
2023-01-13T12:57:19.411Z,11.70
2023-01-13T13:00:06.896Z,11.70
2023-01-13T13:03:03.791Z,11.70
2023-01-13T13:06:03.754Z,11.70
2023-01-13T13:09:05.905Z,11.70
2023-01-13T13:11:59.261Z,11.70
2023-01-13T13:14:45.663Z,11.70
2023-01-13T13:17:34.242Z,11.70
2023-01-13T13:20:03.693Z,11.70
2023-01-13T13:22:45.032Z,11.70
2023-01-13T13:25:25.529Z,11.60
2023-01-13T13:28:10.029Z,11.60
2023-01-13T13:30:48.306Z,11.60
2023-01-13T13:33:52.470Z,11.60
2023-01-13T13:36:49.338Z,11.60
2023-01-13T13:39:47.397Z,11.70
2023-01-13T13:42:43.017Z,11.60
2023-01-13T13:45:41.761Z,11.60
2023-01-13T13:48:27.105Z,11.60
2023-01-13T13:51:03.820Z,11.70
2023-01-13T13:53:44.609Z,11.70
2023-01-13T13:56:23.300Z,11.70
2023-01-13T13:58:52.567Z,11.70
2023-01-13T14:01:38.920Z,11.70
2023-01-13T14:04:20.382Z,11.70
2023-01-13T14:07:07.100Z,11.70
2023-01-13T14:09:51.026Z,11.80
2023-01-13T14:12:27.625Z,11.80
2023-01-13T14:14:57.649Z,11.80
2023-01-13T14:17:28.940Z,11.80
2023-01-13T14:20:13.537Z,11.90
2023-01-13T14:22:40.987Z,11.90
2023-01-13T14:25:28.564Z,11.90
2023-01-13T14:28:00.737Z,11.90
2023-01-13T14:30:28.681Z,12.00
2023-01-13T14:32:57.447Z,12.00
2023-01-13T14:35:25.046Z,12.10
2023-01-13T14:38:16.837Z,12.10
2023-01-13T14:41:42.505Z,12.10
2023-01-13T14:44:32.953Z,12.10
2023-01-13T14:47:05.245Z,12.10
2023-01-13T14:49:43.214Z,12.10
2023-01-13T14:52:14.361Z,12.10
2023-01-13T14:54:54.612Z,12.10
2023-01-13T14:57:32.566Z,12.00
2023-01-13T15:00:21.573Z,12.00
2023-01-13T15:07:01.723Z,12.00
2023-01-13T15:09:41.543Z,12.00
2023-01-13T15:12:29.693Z,12.00
2023-01-13T15:23:09.070Z,12.00
2023-01-13T15:25:41.515Z,12.00
2023-01-13T15:28:26.533Z,12.00
2023-01-13T15:31:00.746Z,12.00
2023-01-13T15:37:38.569Z,12.00
2023-01-13T15:40:29.226Z,12.00
2023-01-13T15:43:15.627Z,11.90
2023-01-13T15:46:02.543Z,12.00
2023-01-13T15:48:33.694Z,12.00
2023-01-13T15:51:06.673Z,12.00
2023-01-13T15:53:38.229Z,12.00
2023-01-13T15:56:16.224Z,12.00
2023-01-13T15:58:43.692Z,12.00
2023-01-13T16:01:15.715Z,12.00
2023-01-13T16:03:43.054Z,12.00
2023-01-13T16:06:19.557Z,12.00
2023-01-13T16:08:49.005Z,12.00
2023-01-13T16:12:39.504Z,12.00
2023-01-13T16:15:14.650Z,12.00
2023-01-13T16:17:47.526Z,12.00
2023-01-13T16:20:24.095Z,12.00
2023-01-13T16:22:51.351Z,12.00
2023-01-13T16:25:23.819Z,12.00
2023-01-13T16:28:29.809Z,12.00
2023-01-13T16:30:57.101Z,12.00
2023-01-13T16:33:43.240Z,12.00
2023-01-13T16:36:20.535Z,12.00
2023-01-13T16:38:50.496Z,12.00
2023-01-13T16:41:21.175Z,12.00
2023-01-13T16:43:52.105Z,12.00
2023-01-13T16:46:29.688Z,12.00
2023-01-13T16:49:03.969Z,12.00
2023-01-13T16:51:31.456Z,12.10
2023-01-13T16:53:59.058Z,12.10
2023-01-13T16:56:36.236Z,12.10
2023-01-13T16:59:14.611Z,12.10
2023-01-13T17:01:50.367Z,12.10
2023-01-13T17:04:22.152Z,12.10
2023-01-13T17:06:58.558Z,12.10
2023-01-13T17:09:28.790Z,12.10
2023-01-13T17:11:57.243Z,12.10
2023-01-13T17:14:25.313Z,12.10
2023-01-13T17:16:57.235Z,12.10
2023-01-13T17:19:25.988Z,12.10
2023-01-13T17:21:53.748Z,12.10
2023-01-13T17:24:22.023Z,12.10
2023-01-13T17:26:52.807Z,12.10
2023-01-13T17:29:26.167Z,12.10
2023-01-13T17:31:54.970Z,12.10
2023-01-13T17:34:22.889Z,12.10
2023-01-13T17:36:50.623Z,12.00
2023-01-13T17:39:27.803Z,12.00
2023-01-13T17:41:56.213Z,12.00
2023-01-13T17:44:23.808Z,12.00
2023-01-13T17:46:53.877Z,11.90
2023-01-13T17:49:26.870Z,11.90
2023-01-13T17:51:54.910Z,11.90
2023-01-13T17:54:22.885Z,11.90
2023-01-13T17:56:52.079Z,11.80
2023-01-13T17:59:23.477Z,11.90
2023-01-13T18:01:54.220Z,11.80
2023-01-13T18:04:27.365Z,11.80
2023-01-13T18:06:54.778Z,11.80
2023-01-13T18:09:23.047Z,11.80
2023-01-13T18:11:50.812Z,11.80
2023-01-13T18:14:19.142Z,11.80
2023-01-13T18:16:46.500Z,11.80
2023-01-13T18:19:32.465Z,11.80
2023-01-13T18:22:21.855Z,11.80
2023-01-13T18:25:09.998Z,11.80
2023-01-13T18:27:41.946Z,11.90
2023-01-13T18:30:12.679Z,11.90
2023-01-13T18:32:40.407Z,11.90
2023-01-13T18:35:10.648Z,12.00
2023-01-13T18:37:40.756Z,12.00
2023-01-13T18:40:12.520Z,12.00
2023-01-13T18:43:36.619Z,12.00
2023-01-13T18:46:03.993Z,12.00
2023-01-13T18:48:31.514Z,12.00
2023-01-13T18:50:58.941Z,12.00
2023-01-13T18:53:26.576Z,11.90
2023-01-13T18:55:54.047Z,11.90
2023-01-13T18:58:21.804Z,11.90
2023-01-13T19:00:49.459Z,11.80
2023-01-13T19:03:29.547Z,11.80
2023-01-13T19:06:06.304Z,11.80
2023-01-13T19:08:33.893Z,11.70
2023-01-13T19:11:07.107Z,11.70
2023-01-13T19:13:36.229Z,11.60
2023-01-13T19:16:08.284Z,11.60
2023-01-13T19:18:37.118Z,11.50
2023-01-13T19:21:06.360Z,11.50
2023-01-13T19:23:34.635Z,11.40
2023-01-13T19:26:08.877Z,11.40
2023-01-13T19:28:40.314Z,11.30
2023-01-13T19:31:11.376Z,11.30
2023-01-13T19:33:40.474Z,11.30
2023-01-13T19:36:10.034Z,11.20
2023-01-13T19:38:40.379Z,11.20
2023-01-13T19:41:28.381Z,11.20
2023-01-13T19:44:14.953Z,11.20
2023-01-13T19:46:42.397Z,11.10
2023-01-13T19:49:11.559Z,11.10
2023-01-13T19:51:38.838Z,11.10
2023-01-13T19:54:27.675Z,11.10
2023-01-13T19:56:55.015Z,11.20
2023-01-13T19:59:22.370Z,11.20
2023-01-13T20:01:50.967Z,11.20
2023-01-13T20:04:26.670Z,11.20
2023-01-13T20:06:53.965Z,11.30
2023-01-13T20:09:24.352Z,11.20
2023-01-13T20:11:54.625Z,11.30
2023-01-13T20:14:22.862Z,11.30
2023-01-13T20:16:53.474Z,11.30
2023-01-13T20:19:21.143Z,11.30
2023-01-13T20:21:49.128Z,11.20
2023-01-13T20:24:18.350Z,11.30
2023-01-13T20:26:47.370Z,11.20
2023-01-13T20:29:14.776Z,11.20
2023-01-13T20:31:44.500Z,11.20
2023-01-13T20:34:15.066Z,11.20
2023-01-13T20:36:44.340Z,11.20
2023-01-13T20:39:18.199Z,11.20
2023-01-13T20:42:04.417Z,11.20
2023-01-13T20:45:48.901Z,11.20
2023-01-13T20:48:17.972Z,11.20
2023-01-13T20:50:45.484Z,11.20
2023-01-13T20:53:15.758Z,11.20
2023-01-13T20:55:46.075Z,11.20
2023-01-13T20:58:18.980Z,11.20
2023-01-13T21:04:46.970Z,11.10
2023-01-13T21:07:19.302Z,11.20
2023-01-13T21:18:36.131Z,11.20
2023-01-13T21:21:14.205Z,11.20
2023-01-13T21:23:44.721Z,11.20
2023-01-13T21:26:19.558Z,11.20
2023-01-13T21:28:47.551Z,11.20
2023-01-13T21:31:16.069Z,11.20
2023-01-13T21:33:48.581Z,11.20
2023-01-13T21:36:16.343Z,11.20
2023-01-13T21:43:14.189Z,11.20
2023-01-13T21:46:05.469Z,11.10
2023-01-13T21:48:32.872Z,11.10
2023-01-13T21:51:06.210Z,11.10
2023-01-13T21:53:33.412Z,11.00
2023-01-13T21:56:00.698Z,11.00
2023-01-13T21:58:27.913Z,10.90
2023-01-13T22:00:55.717Z,10.90
2023-01-13T22:03:23.163Z,10.90
2023-01-13T22:05:56.951Z,10.80
2023-01-13T22:08:24.211Z,10.80
2023-01-13T22:10:57.978Z,10.80
2023-01-13T22:13:45.609Z,10.80
2023-01-13T22:21:44.709Z,10.70
2023-01-13T22:24:12.887Z,10.70
2023-01-13T22:26:40.279Z,10.70
2023-01-13T22:29:07.489Z,10.60
2023-01-13T22:31:36.692Z,10.60
2023-01-13T22:34:04.535Z,10.60
2023-01-13T22:36:31.796Z,10.60
2023-01-13T22:39:00.877Z,10.60
2023-01-13T22:41:28.282Z,10.60
2023-01-13T22:43:55.582Z,10.60
2023-01-13T22:46:26.031Z,10.60
2023-01-13T22:49:08.647Z,10.70
2023-01-13T22:51:36.647Z,10.70
2023-01-13T22:54:04.837Z,10.70
2023-01-13T22:56:32.394Z,10.70
2023-01-13T22:59:02.629Z,10.70
2023-01-13T23:01:33.996Z,10.70
2023-01-13T23:04:03.488Z,10.70
2023-01-13T23:06:33.608Z,10.70
2023-01-13T23:09:03.867Z,10.70
2023-01-13T23:11:31.500Z,10.60
2023-01-13T23:14:02.930Z,10.70
2023-01-13T23:16:34.237Z,10.70
2023-01-13T23:19:01.904Z,10.70
2023-01-13T23:21:32.195Z,10.80
2023-01-13T23:24:00.452Z,10.80
2023-01-13T23:26:30.538Z,10.80
2023-01-13T23:29:05.506Z,10.80
2023-01-13T23:31:33.673Z,10.80
2023-01-13T23:34:01.207Z,10.90
2023-01-13T23:36:29.849Z,10.90
2023-01-13T23:38:59.491Z,10.90
2023-01-13T23:41:28.644Z,11.00
2023-01-13T23:44:00.165Z,11.00
2023-01-13T23:46:30.784Z,11.00
2023-01-13T23:48:58.202Z,11.00
